createdAt,value
2024-02-29T00:00:40.770Z,25.35
2024-02-29T00:03:10.054Z,25.20
2024-02-29T00:05:38.096Z,26.75
2024-02-29T00:08:05.035Z,26.43
2024-02-29T00:10:31.689Z,25.75
2024-02-29T00:12:58.750Z,25.13
2024-02-29T00:15:25.486Z,25.35
2024-02-29T00:17:52.349Z,26.45
2024-02-29T00:20:19.414Z,26.05
2024-02-29T00:22:47.381Z,25.85
2024-02-29T00:25:13.951Z,25.30
2024-02-29T00:27:43.318Z,25.42
2024-02-29T00:30:11.426Z,26.38
2024-02-29T00:32:38.699Z,25.33
2024-02-29T00:35:06.036Z,27.15
2024-02-29T00:37:32.674Z,28.88
2024-02-29T00:39:59.666Z,26.52
2024-02-29T00:42:26.593Z,27.45
2024-02-29T00:44:53.098Z,28.13
2024-02-29T00:47:19.517Z,27.02
2024-02-29T00:49:46.108Z,28.08
2024-02-29T00:52:12.691Z,24.70
2024-02-29T00:54:39.313Z,25.17
2024-02-29T00:57:06.063Z,26.45
2024-02-29T00:59:32.520Z,25.13
2024-02-29T01:01:59.261Z,26.15
2024-02-29T01:04:25.998Z,26.17
2024-02-29T01:06:52.699Z,25.38
2024-02-29T01:09:20.974Z,26.15
2024-02-29T01:11:49.680Z,25.95
2024-02-29T01:14:16.260Z,25.83
2024-02-29T01:16:42.812Z,26.50
2024-02-29T01:19:09.846Z,26.90
2024-02-29T01:21:36.534Z,27.10
2024-02-29T01:24:03.055Z,26.13
2024-02-29T01:26:29.836Z,27.33
2024-02-29T01:28:57.307Z,26.77
2024-02-29T01:31:23.845Z,27.13
2024-02-29T01:33:50.479Z,27.33
2024-02-29T01:36:16.945Z,25.27
2024-02-29T01:38:43.433Z,25.80
2024-02-29T01:41:10.048Z,26.85
2024-02-29T01:43:36.515Z,27.00
2024-02-29T01:46:21.587Z,25.48
2024-02-29T01:48:49.407Z,27.57
2024-02-29T01:51:18.553Z,27.80
2024-02-29T01:53:45.385Z,28.92
2024-02-29T01:56:14.038Z,27.67
2024-02-29T01:58:44.230Z,27.67
2024-02-29T02:01:11.011Z,27.10
2024-02-29T02:03:39.115Z,26.40
2024-02-29T02:06:05.951Z,28.08
2024-02-29T02:08:33.400Z,26.77
2024-02-29T02:11:00.826Z,26.85
2024-02-29T02:13:27.472Z,25.27
2024-02-29T02:15:54.273Z,26.10
2024-02-29T02:18:20.859Z,26.77
2024-02-29T02:20:47.708Z,26.27
2024-02-29T02:23:14.198Z,25.83
2024-02-29T02:25:40.710Z,26.58
2024-02-29T02:28:07.510Z,26.80
2024-02-29T02:30:34.168Z,26.77
2024-02-29T02:33:00.922Z,27.52
2024-02-29T02:35:27.556Z,27.40
2024-02-29T02:37:53.985Z,27.33
2024-02-29T02:40:20.754Z,28.00
2024-02-29T02:42:47.348Z,28.02
2024-02-29T02:45:14.037Z,26.77
2024-02-29T02:47:40.618Z,26.60
2024-02-29T02:50:07.454Z,27.48
2024-02-29T02:52:34.108Z,28.67
2024-02-29T02:55:00.823Z,28.95
2024-02-29T02:57:27.399Z,27.88
2024-02-29T02:59:54.046Z,28.30
2024-02-29T03:02:20.895Z,28.45
2024-02-29T03:04:47.554Z,28.55
2024-02-29T03:07:14.173Z,28.58
2024-02-29T03:09:40.989Z,27.33
2024-02-29T03:12:08.959Z,26.95
2024-02-29T03:14:35.386Z,27.98
2024-02-29T03:17:02.040Z,27.67
2024-02-29T03:19:28.691Z,28.10
2024-02-29T03:21:55.153Z,27.40
2024-02-29T03:24:22.268Z,26.70
2024-02-29T03:26:48.864Z,27.15
2024-02-29T03:29:15.607Z,27.42
2024-02-29T03:31:45.800Z,27.92
2024-02-29T03:34:12.423Z,28.55
2024-02-29T03:36:39.174Z,28.13
2024-02-29T03:39:06.294Z,29.40
2024-02-29T03:41:33.429Z,29.13
2024-02-29T03:44:00.715Z,27.58
2024-02-29T03:46:27.277Z,27.50
2024-02-29T03:48:53.777Z,28.48
2024-02-29T03:51:20.471Z,27.05
2024-02-29T03:53:47.116Z,28.23
2024-02-29T03:56:13.797Z,28.00
2024-02-29T03:58:40.964Z,27.63
2024-02-29T04:01:11.878Z,28.88
2024-02-29T04:03:40.101Z,27.90
2024-02-29T04:06:10.051Z,27.67
2024-02-29T04:08:37.242Z,27.97
2024-02-29T04:11:04.101Z,27.85
2024-02-29T04:13:30.616Z,27.08
2024-02-29T04:15:57.142Z,29.52
2024-02-29T04:18:23.956Z,30.77
2024-02-29T04:20:51.631Z,32.60
2024-02-29T04:23:18.301Z,33.45
2024-02-29T04:25:46.577Z,31.77
2024-02-29T04:28:15.835Z,34.15
2024-02-29T04:30:43.738Z,33.72
2024-02-29T04:33:12.545Z,35.78
2024-02-29T04:35:39.125Z,34.43
2024-02-29T04:38:05.630Z,34.80
2024-02-29T04:40:32.383Z,34.85
2024-02-29T04:42:59.164Z,34.63
2024-02-29T04:45:28.054Z,35.15
2024-02-29T04:47:55.149Z,37.30
2024-02-29T04:50:22.047Z,35.78
2024-02-29T04:52:48.693Z,35.17
2024-02-29T04:55:15.446Z,35.97
2024-02-29T04:57:42.116Z,35.75
2024-02-29T05:00:11.415Z,36.97
2024-02-29T05:02:38.430Z,34.85
2024-02-29T05:05:07.584Z,35.15
2024-02-29T05:07:35.119Z,33.88
2024-02-29T05:10:02.227Z,34.28
2024-02-29T05:12:29.007Z,35.08
2024-02-29T05:14:55.857Z,34.08
2024-02-29T05:17:22.556Z,37.17
2024-02-29T05:19:49.530Z,38.53
2024-02-29T05:22:16.179Z,36.25
2024-02-29T05:24:43.022Z,35.53
2024-02-29T05:27:09.737Z,34.85
2024-02-29T05:29:36.493Z,33.15
2024-02-29T05:32:03.285Z,35.88
2024-02-29T05:34:29.812Z,34.45
2024-02-29T05:36:59.120Z,35.42
2024-02-29T05:39:25.724Z,36.63
2024-02-29T05:41:52.382Z,34.22
2024-02-29T05:44:19.717Z,37.17
2024-02-29T05:46:46.402Z,37.08
2024-02-29T05:49:13.146Z,32.67
2024-02-29T05:51:39.760Z,31.77
2024-02-29T05:54:06.380Z,34.47
2024-02-29T05:56:32.911Z,31.77
2024-02-29T05:59:00.058Z,34.80
2024-02-29T06:01:29.481Z,33.53
2024-02-29T06:03:56.415Z,35.00
2024-02-29T06:06:25.099Z,35.03
2024-02-29T06:08:51.651Z,32.30
2024-02-29T06:11:19.844Z,33.20
2024-02-29T06:13:46.403Z,33.13
2024-02-29T06:16:14.547Z,31.80
2024-02-29T06:18:43.814Z,31.90
2024-02-29T06:21:10.957Z,32.60
2024-02-29T06:23:37.856Z,32.78
2024-02-29T06:26:04.802Z,32.25
2024-02-29T06:28:31.435Z,37.72
2024-02-29T06:30:58.050Z,35.75
2024-02-29T06:33:24.762Z,34.05
2024-02-29T06:35:51.998Z,35.08
2024-02-29T06:38:18.663Z,32.20
2024-02-29T06:40:46.259Z,35.08
2024-02-29T06:43:12.729Z,34.60
2024-02-29T06:45:46.223Z,38.40
2024-02-29T06:48:12.817Z,35.40
2024-02-29T06:50:39.454Z,34.33
2024-02-29T06:53:06.098Z,33.95
2024-02-29T06:55:33.188Z,33.07
2024-02-29T06:58:00.369Z,31.83
2024-02-29T07:00:27.293Z,32.80
2024-02-29T07:02:53.981Z,30.67
2024-02-29T07:05:20.780Z,30.48
2024-02-29T07:07:47.455Z,31.87
2024-02-29T07:10:14.190Z,33.10
2024-02-29T07:12:41.935Z,31.77
2024-02-29T07:15:09.114Z,31.50
2024-02-29T07:17:35.782Z,35.00
2024-02-29T07:20:04.949Z,31.48
2024-02-29T07:22:32.433Z,30.85
2024-02-29T07:25:02.147Z,31.65
2024-02-29T07:27:28.879Z,27.77
2024-02-29T07:29:55.439Z,29.65
2024-02-29T07:32:22.064Z,28.60
2024-02-29T07:34:48.776Z,28.40
2024-02-29T07:37:15.429Z,31.92
2024-02-29T07:39:42.126Z,28.53
2024-02-29T07:42:10.230Z,29.05
2024-02-29T07:44:36.935Z,30.00
2024-02-29T07:47:03.965Z,30.53
2024-02-29T07:49:33.004Z,26.95
2024-02-29T07:51:59.769Z,27.63
2024-02-29T07:54:26.523Z,29.33
2024-02-29T07:56:53.331Z,26.27
2024-02-29T07:59:20.058Z,29.30
2024-02-29T08:01:46.611Z,33.75
2024-02-29T08:04:13.609Z,26.17
2024-02-29T08:06:40.178Z,25.42
2024-02-29T08:09:09.545Z,24.58
2024-02-29T08:11:37.525Z,24.45
2024-02-29T08:14:04.206Z,25.23
2024-02-29T08:16:30.756Z,27.77
2024-02-29T08:18:57.305Z,27.55
2024-02-29T08:21:23.845Z,27.05
2024-02-29T08:23:50.417Z,25.20
2024-02-29T08:26:16.991Z,26.85
2024-02-29T08:28:44.555Z,25.90
2024-02-29T08:31:13.409Z,28.50
2024-02-29T08:33:40.065Z,27.85
2024-02-29T08:36:06.734Z,27.45
2024-02-29T08:38:35.331Z,29.45
2024-02-29T08:41:03.357Z,29.60
2024-02-29T08:43:30.030Z,28.75
2024-02-29T08:45:56.879Z,26.88
2024-02-29T08:48:24.190Z,29.15
2024-02-29T08:50:50.775Z,24.95
2024-02-29T08:53:17.342Z,28.33
2024-02-29T08:55:43.911Z,29.13
2024-02-29T08:58:11.550Z,32.53
2024-02-29T09:00:38.135Z,31.30
2024-02-29T09:03:05.106Z,31.92
2024-02-29T09:05:34.790Z,32.70
2024-02-29T09:08:01.438Z,31.63
2024-02-29T09:10:28.719Z,31.70
2024-02-29T09:12:55.952Z,30.67
2024-02-29T09:15:22.513Z,29.83
2024-02-29T09:17:48.996Z,30.90
2024-02-29T09:20:15.681Z,30.65
2024-02-29T09:22:42.148Z,30.85
2024-02-29T09:25:09.271Z,30.88
2024-02-29T09:27:35.862Z,28.75
2024-02-29T09:30:02.500Z,31.55
2024-02-29T09:32:30.074Z,29.25
2024-02-29T09:34:56.649Z,30.13
2024-02-29T09:37:23.311Z,30.02
2024-02-29T09:39:49.978Z,32.17
2024-02-29T09:42:17.223Z,30.70
2024-02-29T09:44:44.774Z,30.48
2024-02-29T09:47:13.823Z,30.05
2024-02-29T09:49:41.950Z,28.40
2024-02-29T09:52:09.535Z,28.48
2024-02-29T09:54:40.810Z,28.45
2024-02-29T09:57:13.112Z,29.40
2024-02-29T09:59:43.050Z,29.92
2024-02-29T10:02:15.408Z,29.50
2024-02-29T10:04:41.960Z,30.25
2024-02-29T10:07:08.667Z,31.45
2024-02-29T10:09:35.217Z,32.63
2024-02-29T10:12:03.337Z,28.85
2024-02-29T10:14:32.736Z,27.90
2024-02-29T10:17:00.078Z,28.92
2024-02-29T10:19:26.834Z,29.10
2024-02-29T10:21:53.789Z,29.93
2024-02-29T10:24:21.394Z,28.42
2024-02-29T10:26:48.161Z,29.07
2024-02-29T10:29:17.242Z,28.83
2024-02-29T10:31:44.360Z,27.98
2024-02-29T10:34:12.189Z,26.43
2024-02-29T10:36:39.750Z,28.15
2024-02-29T10:39:06.608Z,29.73
2024-02-29T10:41:33.803Z,29.70
2024-02-29T10:44:07.452Z,29.52
2024-02-29T10:46:36.093Z,28.27
2024-02-29T10:49:12.866Z,28.80
2024-02-29T10:51:55.267Z,29.05
2024-02-29T10:54:29.125Z,27.65
2024-02-29T10:56:56.745Z,31.00
2024-02-29T10:59:24.800Z,28.27
2024-02-29T11:01:59.262Z,29.83
2024-02-29T11:04:27.052Z,30.08
2024-02-29T11:06:54.161Z,29.75
2024-02-29T11:09:28.120Z,31.10
2024-02-29T11:12:23.076Z,28.70
2024-02-29T11:14:50.558Z,29.58
2024-02-29T11:17:18.245Z,28.90
2024-02-29T11:19:54.468Z,28.85
2024-02-29T11:22:35.892Z,31.70
2024-02-29T11:25:12.084Z,30.35
2024-02-29T11:27:47.092Z,27.60
2024-02-29T11:30:18.672Z,26.90
2024-02-29T11:32:45.222Z,26.92
2024-02-29T11:35:12.879Z,27.52
2024-02-29T11:37:40.876Z,26.33
2024-02-29T11:40:09.620Z,25.23
2024-02-29T11:42:37.533Z,25.30
2024-02-29T11:45:04.682Z,25.02
2024-02-29T11:47:31.677Z,21.67
2024-02-29T11:50:02.271Z,20.77
2024-02-29T11:52:28.985Z,18.00
2024-02-29T11:54:55.719Z,9.13
2024-02-29T11:57:24.477Z,12.40
2024-02-29T11:59:53.428Z,10.57
2024-02-29T12:02:21.366Z,9.80
2024-02-29T12:04:49.457Z,8.70
2024-02-29T12:07:17.803Z,9.88
2024-02-29T12:09:45.967Z,12.10
2024-02-29T12:12:13.662Z,11.27
2024-02-29T12:14:41.745Z,10.98
2024-02-29T12:17:09.141Z,12.82
2024-02-29T12:19:36.184Z,12.57
2024-02-29T12:22:04.114Z,11.02
2024-02-29T12:24:32.387Z,10.25
2024-02-29T12:26:59.284Z,11.13
2024-02-29T12:29:25.956Z,11.25
2024-02-29T12:31:52.634Z,11.05
2024-02-29T12:34:19.200Z,10.82
2024-02-29T12:36:47.032Z,11.07
2024-02-29T12:39:19.831Z,11.32
2024-02-29T12:41:46.560Z,12.10
2024-02-29T12:44:13.139Z,13.48
2024-02-29T12:46:39.706Z,14.32
2024-02-29T12:49:08.646Z,12.20
2024-02-29T12:51:35.151Z,13.55
2024-02-29T12:54:01.745Z,13.63
2024-02-29T12:56:28.520Z,14.82
2024-02-29T12:58:54.985Z,14.98
2024-02-29T13:01:21.633Z,13.57
2024-02-29T13:03:48.644Z,15.48
2024-02-29T13:06:15.344Z,16.13
2024-02-29T13:08:42.104Z,16.33
2024-02-29T13:11:08.552Z,15.52
2024-02-29T13:13:35.225Z,16.10
2024-02-29T13:16:02.007Z,15.80
2024-02-29T13:18:28.661Z,16.35
2024-02-29T13:20:55.590Z,15.77
2024-02-29T13:23:22.272Z,15.60
2024-02-29T13:25:49.241Z,15.73
2024-02-29T13:28:16.125Z,15.40
2024-02-29T13:30:42.729Z,15.93
2024-02-29T13:33:09.651Z,15.75
2024-02-29T13:35:36.177Z,15.52
2024-02-29T13:38:02.790Z,16.05
2024-02-29T13:40:29.668Z,15.43
2024-02-29T13:42:56.343Z,17.08
2024-02-29T13:45:22.845Z,15.65
2024-02-29T13:47:51.963Z,16.67
2024-02-29T13:50:20.474Z,16.75
2024-02-29T13:52:47.290Z,17.15
2024-02-29T13:55:13.994Z,17.27
2024-02-29T13:57:41.309Z,17.08
2024-02-29T14:00:09.876Z,16.77
2024-02-29T14:02:36.891Z,15.98
2024-02-29T14:05:07.121Z,15.80
2024-02-29T14:07:34.220Z,20.25
2024-02-29T14:10:00.823Z,20.92
2024-02-29T14:12:28.480Z,15.18
2024-02-29T14:14:55.012Z,15.73
2024-02-29T14:17:21.828Z,15.60
2024-02-29T14:19:48.380Z,15.10
2024-02-29T14:22:15.330Z,16.25
2024-02-29T14:24:42.188Z,15.55
2024-02-29T14:27:08.873Z,16.52
2024-02-29T14:29:38.356Z,16.17
2024-02-29T14:32:05.706Z,16.27
2024-02-29T14:34:35.907Z,18.00
2024-02-29T14:37:05.649Z,17.23
2024-02-29T14:39:34.333Z,17.67
2024-02-29T14:42:00.883Z,18.20
2024-02-29T14:44:27.433Z,17.02
2024-02-29T14:46:55.637Z,17.58
2024-02-29T14:49:22.334Z,18.10
2024-02-29T14:51:49.238Z,17.70
2024-02-29T14:54:15.977Z,19.13
2024-02-29T14:56:44.389Z,19.58
2024-02-29T14:59:11.995Z,20.42
2024-02-29T15:01:38.998Z,19.92
2024-02-29T15:04:05.618Z,21.25
2024-02-29T15:06:32.167Z,21.05
2024-02-29T15:08:58.759Z,22.02
2024-02-29T15:11:27.330Z,22.77
2024-02-29T15:13:54.511Z,23.52
2024-02-29T15:16:21.224Z,23.05
2024-02-29T15:18:48.089Z,23.88
2024-02-29T15:21:14.813Z,23.85
2024-02-29T15:23:41.548Z,22.95
2024-02-29T15:26:11.703Z,22.90
2024-02-29T15:28:42.072Z,24.73
2024-02-29T15:31:09.373Z,23.10
2024-02-29T15:33:36.105Z,23.05
2024-02-29T15:36:02.623Z,24.05
2024-02-29T15:38:29.225Z,24.73
2024-02-29T15:40:56.000Z,22.47
2024-02-29T15:43:22.716Z,22.83
2024-02-29T15:45:49.474Z,22.17
2024-02-29T15:48:16.743Z,22.67
2024-02-29T15:50:43.389Z,23.07
2024-02-29T15:53:09.907Z,22.90
2024-02-29T15:55:36.440Z,21.73
2024-02-29T15:58:05.090Z,21.30
2024-02-29T16:00:32.472Z,23.23
2024-02-29T16:02:59.106Z,22.42
2024-02-29T16:05:28.000Z,22.85
2024-02-29T16:07:56.021Z,21.83
2024-02-29T16:10:22.904Z,21.40
2024-02-29T16:12:49.735Z,21.40
2024-02-29T16:15:16.744Z,21.88
2024-02-29T16:17:43.438Z,21.15
2024-02-29T16:20:11.364Z,21.65
2024-02-29T16:22:37.975Z,21.83
2024-02-29T16:25:05.306Z,21.40
2024-02-29T16:27:32.380Z,20.97
2024-02-29T16:29:58.982Z,20.90
2024-02-29T16:32:25.489Z,21.43
2024-02-29T16:34:51.931Z,21.50
2024-02-29T16:37:18.547Z,21.65
2024-02-29T16:39:45.123Z,20.92
2024-02-29T16:42:11.854Z,21.23
2024-02-29T16:44:38.291Z,21.45
2024-02-29T16:47:05.097Z,22.48
2024-02-29T16:49:31.770Z,23.05
2024-02-29T16:51:58.732Z,21.80
2024-02-29T16:54:25.882Z,23.65
2024-02-29T16:56:52.601Z,23.38
2024-02-29T16:59:19.160Z,24.02
2024-02-29T17:01:45.678Z,22.67
2024-02-29T17:04:12.313Z,23.50
2024-02-29T17:06:39.107Z,23.08
2024-02-29T17:09:06.064Z,23.13
2024-02-29T17:11:33.030Z,23.15
2024-02-29T17:13:59.632Z,22.27
2024-02-29T17:16:26.418Z,24.27
2024-02-29T17:18:53.141Z,22.40
2024-02-29T17:21:21.357Z,23.02
2024-02-29T17:23:47.815Z,23.17
2024-02-29T17:26:18.150Z,22.65
2024-02-29T17:28:44.704Z,22.65
2024-02-29T17:31:11.297Z,23.05
2024-02-29T17:33:41.320Z,22.48
2024-02-29T17:36:07.982Z,22.55
2024-02-29T17:38:34.647Z,23.80
2024-02-29T17:41:01.189Z,24.77
2024-02-29T17:43:27.957Z,22.80
2024-02-29T17:45:54.652Z,23.30
2024-02-29T17:48:21.105Z,23.35
2024-02-29T17:50:47.745Z,23.15
2024-02-29T17:53:14.251Z,23.00
2024-02-29T17:55:40.704Z,23.38
2024-02-29T17:58:07.267Z,23.75
2024-02-29T18:00:33.740Z,23.50
2024-02-29T18:03:01.829Z,23.80
2024-02-29T18:05:29.890Z,23.05
2024-02-29T18:08:02.258Z,22.45
2024-02-29T18:10:30.335Z,23.27
2024-02-29T18:12:58.672Z,23.33
2024-02-29T18:15:26.360Z,22.98
2024-02-29T18:17:53.125Z,22.38
2024-02-29T18:20:20.837Z,22.35
2024-02-29T18:22:47.460Z,21.73
2024-02-29T18:25:14.362Z,22.73
2024-02-29T18:27:40.992Z,22.83
2024-02-29T18:30:11.725Z,22.48
2024-02-29T18:32:38.335Z,22.65
2024-02-29T18:35:09.906Z,23.25
2024-02-29T18:37:38.639Z,22.13
2024-02-29T18:40:05.956Z,23.65
2024-02-29T18:42:32.499Z,24.70
2024-02-29T18:45:01.866Z,23.90
2024-02-29T18:47:28.779Z,23.67
2024-02-29T18:49:55.450Z,23.90
2024-02-29T18:52:21.989Z,23.77
2024-02-29T18:54:50.551Z,23.42
2024-02-29T18:57:17.121Z,25.40
2024-02-29T18:59:43.557Z,25.00
2024-02-29T19:02:10.121Z,24.85
2024-02-29T19:04:37.089Z,26.13
2024-02-29T19:07:03.841Z,24.85
2024-02-29T19:09:32.696Z,24.20
2024-02-29T19:11:59.191Z,25.42
2024-02-29T19:14:26.235Z,26.50
2024-02-29T19:16:55.589Z,26.45
2024-02-29T19:19:22.502Z,26.88
2024-02-29T19:21:49.233Z,27.80
2024-02-29T19:24:15.877Z,27.23
2024-02-29T19:26:44.521Z,28.48
2024-02-29T19:29:11.371Z,27.80
2024-02-29T19:31:40.954Z,28.25
2024-02-29T19:34:08.061Z,29.38
2024-02-29T19:36:34.792Z,26.92
2024-02-29T19:39:01.278Z,26.88
2024-02-29T19:41:28.014Z,27.60
2024-02-29T19:43:54.685Z,27.42
2024-02-29T19:46:21.333Z,28.85
2024-02-29T19:48:47.896Z,28.75
2024-02-29T19:51:15.631Z,28.98
2024-02-29T19:53:44.995Z,28.80
2024-02-29T19:56:12.216Z,27.58
2024-02-29T19:58:39.605Z,27.73
2024-02-29T20:01:07.081Z,26.73
2024-02-29T20:03:33.850Z,26.08
2024-02-29T20:06:01.178Z,28.27
2024-02-29T20:08:27.926Z,27.77
2024-02-29T20:10:54.562Z,27.42
2024-02-29T20:13:21.249Z,27.53
2024-02-29T20:15:48.904Z,27.60
2024-02-29T20:18:17.572Z,27.27
2024-02-29T20:20:44.322Z,26.70
2024-02-29T20:23:11.100Z,31.15
2024-02-29T20:25:37.746Z,28.27
2024-02-29T20:28:04.605Z,27.70
2024-02-29T20:30:31.307Z,26.88
2024-02-29T20:32:57.891Z,26.25
2024-02-29T20:35:24.630Z,27.43
2024-02-29T20:37:51.060Z,27.05
2024-02-29T20:40:18.437Z,26.50
2024-02-29T20:42:45.532Z,27.00
2024-02-29T20:45:15.284Z,27.00
2024-02-29T20:47:44.618Z,26.63
2024-02-29T20:50:11.675Z,27.38
2024-02-29T20:52:38.242Z,27.98
2024-02-29T20:55:05.304Z,28.83
2024-02-29T20:57:33.689Z,26.73
2024-02-29T21:00:00.798Z,25.50
2024-02-29T21:02:29.626Z,26.30
2024-02-29T21:04:59.177Z,28.07
2024-02-29T21:07:26.018Z,27.85
2024-02-29T21:09:53.029Z,26.67
2024-02-29T21:12:19.636Z,27.70
2024-02-29T21:14:46.163Z,27.70
2024-02-29T21:17:13.305Z,29.58
2024-02-29T21:19:40.399Z,29.77
2024-02-29T21:22:07.661Z,29.65
2024-02-29T21:24:34.233Z,30.35
2024-02-29T21:27:00.977Z,28.52
2024-02-29T21:29:27.484Z,29.70
2024-02-29T21:31:53.901Z,30.77
2024-02-29T21:34:21.260Z,28.73
2024-02-29T21:36:48.794Z,30.73
2024-02-29T21:39:18.983Z,28.90
2024-02-29T21:41:48.247Z,30.75
2024-02-29T21:44:14.625Z,26.95
2024-02-29T21:46:41.071Z,30.85
2024-02-29T21:49:07.636Z,30.95
2024-02-29T21:51:34.292Z,30.77
2024-02-29T21:54:00.780Z,29.40
2024-02-29T21:56:27.695Z,30.10
2024-02-29T21:58:54.280Z,30.75
2024-02-29T22:01:21.142Z,29.63
2024-02-29T22:03:47.716Z,29.27
2024-02-29T22:06:14.249Z,28.77
2024-02-29T22:08:43.699Z,29.33
2024-02-29T22:11:10.489Z,30.13
2024-02-29T22:13:38.441Z,30.75
2024-02-29T22:16:05.232Z,30.00
2024-02-29T22:18:32.056Z,30.63
2024-02-29T22:20:58.541Z,29.33
2024-02-29T22:23:25.116Z,29.90
2024-02-29T22:25:51.549Z,29.73
2024-02-29T22:28:18.294Z,29.70
2024-02-29T22:30:46.540Z,28.02
2024-02-29T22:33:14.127Z,29.65
2024-02-29T22:35:40.892Z,28.92
2024-02-29T22:38:07.905Z,30.30
2024-02-29T22:40:34.463Z,29.85
2024-02-29T22:43:00.972Z,29.80
2024-02-29T22:45:27.600Z,29.17
2024-02-29T22:47:54.151Z,29.15
2024-02-29T22:50:20.725Z,28.33
2024-02-29T22:52:47.197Z,29.75
2024-02-29T22:55:13.924Z,29.43
2024-02-29T22:57:40.437Z,30.25
2024-02-29T23:00:24.481Z,30.23
2024-02-29T23:02:51.622Z,30.10
2024-02-29T23:05:18.206Z,29.90
2024-02-29T23:07:47.353Z,29.48
2024-02-29T23:10:15.311Z,30.73
2024-02-29T23:12:45.639Z,30.15
2024-02-29T23:15:12.425Z,29.25
2024-02-29T23:17:40.138Z,29.75
2024-02-29T23:20:07.278Z,30.45
2024-02-29T23:22:34.391Z,30.60
2024-02-29T23:25:00.926Z,28.60
2024-02-29T23:27:27.513Z,27.88
2024-02-29T23:29:53.977Z,29.55
2024-02-29T23:32:20.506Z,30.45
2024-02-29T23:34:46.965Z,30.83
2024-02-29T23:37:13.639Z,31.27
2024-02-29T23:39:40.142Z,29.85
2024-02-29T23:42:06.839Z,29.15
2024-02-29T23:44:33.383Z,29.00
2024-02-29T23:47:00.447Z,30.77
2024-02-29T23:49:27.105Z,28.90
2024-02-29T23:51:53.668Z,30.30
2024-02-29T23:54:20.114Z,29.75
2024-02-29T23:56:46.484Z,32.65
2024-02-29T23:59:13.076Z,31.50
